Time;durP1;ratioP1;P1;durP2;ratioP2;P2;SDS_P1;SDS_P2;PMS_P1;PMS_P2;Temp;Humidity;BMP_temperature;BMP_pressure;BME280_temperature;BME280_humidity;BME280_pressure;Samples;Min_cycle;Max_cycle;Signal;HPM_P1;HPM_P2
2022/08/01 00:00:01;;;;;;;1.42;1.25;;;23.00;99.90;;;;;;5063019;28;20248;-69
2022/08/01 00:02:28;;;;;;;4.53;1.60;;;22.90;99.90;;;;;;5058302;28;20199;-69
2022/08/01 00:04:55;;;;;;;2.67;1.30;;;22.90;99.90;;;;;;5062540;28;20218;-68
2022/08/01 00:07:21;;;;;;;2.08;1.38;;;22.90;99.90;;;;;;5057800;28;20206;-69
2022/08/01 00:09:48;;;;;;;1.70;1.05;;;22.90;99.90;;;;;;5061696;28;20195;-68
2022/08/01 00:12:15;;;;;;;2.60;1.40;;;22.90;99.90;;;;;;5056302;28;20248;-68
2022/08/01 00:14:41;;;;;;;1.20;1.10;;;22.90;99.90;;;;;;5060977;28;20218;-68
2022/08/01 00:17:08;;;;;;;2.30;1.10;;;22.70;99.90;;;;;;5058334;28;20249;-68
2022/08/01 00:19:35;;;;;;;2.00;1.30;;;22.70;99.90;;;;;;5060313;28;20244;-66
2022/08/01 00:22:01;;;;;;;2.83;1.40;;;22.70;99.90;;;;;;5062615;28;20225;-69
2022/08/01 00:24:28;;;;;;;1.15;1.00;;;22.60;99.90;;;;;;5060394;28;20717;-68
2022/08/01 00:26:55;;;;;;;2.47;1.27;;;22.60;99.90;;;;;;5053041;28;20285;-68
2022/08/01 00:29:22;;;;;;;1.50;1.00;;;22.50;99.90;;;;;;5062736;28;20209;-69
2022/08/01 00:32:08;;;;;;;1.38;1.20;;;22.60;99.90;;;;;;5059840;28;20229;-68
2022/08/01 00:34:35;;;;;;;1.60;1.15;;;22.50;99.90;;;;;;5058545;28;20250;-68
2022/08/01 00:37:02;;;;;;;2.28;1.23;;;22.50;99.90;;;;;;5058849;28;20255;-68
2022/08/01 00:39:29;;;;;;;1.55;1.25;;;22.50;99.90;;;;;;5061847;28;20255;-68
2022/08/01 00:41:55;;;;;;;2.05;1.33;;;22.50;99.90;;;;;;5063273;28;20268;-68
2022/08/01 00:44:26;;;;;;;1.30;1.20;;;22.40;99.90;;;;;;5056002;28;20195;-68
2022/08/01 00:46:52;;;;;;;3.53;1.30;;;22.30;99.90;;;;;;5062272;28;20191;-68
2022/08/01 00:49:19;;;;;;;3.05;1.40;;;22.40;99.90;;;;;;5063414;28;20190;-68
2022/08/01 00:51:46;;;;;;;1.20;1.00;;;22.40;99.90;;;;;;5061875;28;20217;-68
2022/08/01 00:54:13;;;;;;;1.52;1.10;;;22.30;99.90;;;;;;5059502;28;20194;-68
2022/08/01 00:56:42;;;;;;;3.95;1.33;;;22.40;99.90;;;;;;5059189;28;20242;-68
2022/08/01 00:59:11;;;;;;;1.63;1.00;;;22.30;99.90;;;;;;5064612;28;20194;-68
2022/08/01 01:01:40;;;;;;;1.60;1.20;;;22.30;99.90;;;;;;5055902;28;20223;-68
2022/08/01 01:04:12;;;;;;;5.18;1.25;;;22.30;99.90;;;;;;5064211;28;20198;-68
2022/08/01 01:06:50;;;;;;;2.10;1.13;;;22.20;99.90;;;;;;5059177;28;20194;-67
2022/08/01 01:09:34;;;;;;;1.88;1.30;;;22.30;99.90;;;;;;5046357;28;20209;-68
2022/08/01 01:12:15;;;;;;;2.20;1.20;;;22.20;99.90;;;;;;5057577;28;20213;-68
2022/08/01 01:14:59;;;;;;;2.95;1.50;;;22.20;99.90;;;;;;5059114;28;20222;-68
2022/08/01 01:17:41;;;;;;;2.03;1.20;;;22.10;99.90;;;;;;5062190;28;20256;-68
2022/08/01 01:20:20;;;;;;;1.75;1.05;;;22.00;99.90;;;;;;5064164;28;20209;-69
2022/08/01 01:22:49;;;;;;;2.42;1.20;;;21.90;99.90;;;;;;5061564;28;20195;-69
2022/08/01 01:25:44;;;;;;;1.30;1.20;;;22.00;99.90;;;;;;5068046;28;20195;-69
2022/08/01 01:28:32;;;;;;;2.25;1.25;;;21.90;99.90;;;;;;5058576;28;20699;-68
2022/08/01 01:31:00;;;;;;;1.83;1.38;;;21.70;99.90;;;;;;5049663;28;20219;-68
2022/08/01 01:33:31;;;;;;;1.30;1.20;;;21.60;99.90;;;;;;5053075;28;20215;-68
2022/08/01 01:36:01;;;;;;;2.58;1.50;;;21.50;99.90;;;;;;5064552;28;20210;-67
2022/08/01 01:38:33;;;;;;;2.55;1.40;;;21.60;99.90;;;;;;5055868;28;20195;-68
2022/08/01 01:41:02;;;;;;;1.40;1.20;;;21.60;99.90;;;;;;5063854;28;20215;-68
2022/08/01 01:43:29;;;;;;;2.50;1.15;;;21.50;99.90;;;;;;5062532;28;20195;-68
2022/08/01 01:46:00;;;;;;;1.23;1.10;;;21.40;99.90;;;;;;5065904;28;20198;-68
2022/08/01 01:48:28;;;;;;;1.40;1.17;;;21.30;99.90;;;;;;5042422;28;20195;-69
2022/08/01 01:50:56;;;;;;;1.67;1.30;;;21.20;99.90;;;;;;5052485;28;20280;-68
2022/08/01 01:53:23;;;;;;;1.52;1.33;;;21.20;99.90;;;;;;5052616;28;20613;-68
2022/08/01 01:55:53;;;;;;;1.85;1.30;;;21.20;99.90;;;;;;5042538;28;20225;-67
2022/08/01 01:58:20;;;;;;;1.98;1.35;;;21.10;99.90;;;;;;5053343;28;20210;-68
2022/08/01 02:00:49;;;;;;;3.05;1.38;;;21.10;99.90;;;;;;5051886;28;20210;-68
2022/08/01 02:03:18;;;;;;;2.17;1.33;;;21.00;99.90;;;;;;5042952;28;20671;-68
2022/08/01 02:05:46;;;;;;;1.73;1.17;;;20.90;99.90;;;;;;5049974;28;20195;-69
2022/08/01 02:08:16;;;;;;;1.60;1.23;;;20.90;99.90;;;;;;5052758;28;20208;-69
2022/08/01 02:11:17;;;;;;;3.72;1.50;;;20.80;99.90;;;;;;5051946;28;20222;-68
2022/08/01 02:13:33;;;;;;;1.80;1.42;;;20.80;99.90;;;;;;5050689;28;20205;-68
2022/08/01 02:16:01;;;;;;;1.63;1.23;;;20.70;99.90;;;;;;5051940;28;20214;-68
2022/08/01 02:18:28;;;;;;;3.20;1.65;;;20.60;99.90;;;;;;5052044;28;20622;-68
2022/08/01 02:20:57;;;;;;;2.00;1.40;;;20.70;99.90;;;;;;5051271;28;20595;-68
2022/08/01 02:23:26;;;;;;;1.35;1.25;;;20.70;99.90;;;;;;5050598;28;20245;-69
2022/08/01 02:25:57;;;;;;;1.52;1.40;;;20.80;99.90;;;;;;5051848;28;20222;-68
2022/08/01 02:28:55;;;;;;;1.25;1.15;;;20.80;99.90;;;;;;5051479;28;20237;-69
2022/08/01 02:31:22;;;;;;;2.28;1.70;;;20.80;99.90;;;;;;5049049;28;20214;-68
2022/08/01 02:34:11;;;;;;;2.70;1.70;;;20.70;99.90;;;;;;5051763;28;20213;-68
2022/08/01 02:36:38;;;;;;;2.55;1.30;;;20.70;99.90;;;;;;5051019;28;20686;-68
2022/08/01 02:39:14;;;;;;;2.00;1.25;;;20.70;99.90;;;;;;5050969;28;20190;-68
2022/08/01 02:41:49;;;;;;;1.77;1.42;;;20.60;99.90;;;;;;5051268;28;20817;-68
2022/08/01 02:44:27;;;;;;;2.88;1.70;;;20.70;99.90;;;;;;5051727;28;20632;-68
2022/08/01 02:47:01;;;;;;;1.48;1.38;;;20.60;99.90;;;;;;5049940;28;20202;-69
2022/08/01 02:49:32;;;;;;;1.60;1.33;;;20.50;99.90;;;;;;5049652;28;20194;-68
2022/08/01 02:52:03;;;;;;;2.05;1.42;;;20.40;99.90;;;;;;5051229;28;20265;-68
2022/08/01 02:54:32;;;;;;;2.10;1.45;;;20.40;99.90;;;;;;5051600;28;20230;-68
2022/08/01 02:57:00;;;;;;;1.70;1.60;;;20.40;99.90;;;;;;5045227;28;20218;-68
2022/08/01 02:59:29;;;;;;;3.27;1.50;;;20.30;99.90;;;;;;5051289;28;20775;-68
2022/08/01 03:01:58;;;;;;;2.03;1.47;;;20.30;99.90;;;;;;5051088;28;20219;-68
2022/08/01 03:04:27;;;;;;;1.87;1.40;;;20.30;99.90;;;;;;5051486;28;20660;-68
2022/08/01 03:06:58;;;;;;;3.37;1.50;;;20.40;99.90;;;;;;5050620;28;20664;-68
2022/08/01 03:09:28;;;;;;;1.80;1.37;;;20.30;99.90;;;;;;5051415;28;20282;-68
2022/08/01 03:11:58;;;;;;;2.30;1.50;;;20.20;99.90;;;;;;5051426;28;20238;-67
2022/08/01 03:14:26;;;;;;;3.67;1.70;;;20.20;99.90;;;;;;5049995;28;20206;-67
2022/08/01 03:16:53;;;;;;;2.20;1.60;;;20.10;99.90;;;;;;5049846;28;20215;-68
2022/08/01 03:19:24;;;;;;;2.13;1.60;;;20.10;99.90;;;;;;5051032;28;20597;-68
2022/08/01 03:21:51;;;;;;;2.33;1.30;;;20.30;99.90;;;;;;5049053;28;20269;-68
2022/08/01 03:24:21;;;;;;;2.00;1.57;;;20.20;99.90;;;;;;5046745;28;20582;-68
2022/08/01 03:26:48;;;;;;;1.80;1.70;;;20.10;99.90;;;;;;5051013;28;20195;-68
2022/08/01 03:29:22;;;;;;;3.77;1.53;;;20.10;99.90;;;;;;5050603;28;20202;-68
2022/08/01 03:31:50;;;;;;;2.37;1.87;;;20.00;99.90;;;;;;5045798;28;20222;-68
2022/08/01 03:34:17;;;;;;;3.13;1.67;;;20.10;99.90;;;;;;5050452;28;20198;-68
2022/08/01 03:37:01;;;;;;;3.23;1.40;;;20.10;99.90;;;;;;5050476;28;20223;-68
2022/08/01 03:39:33;;;;;;;1.80;1.40;;;20.10;99.90;;;;;;5047422;28;20740;-68
2022/08/01 03:42:07;;;;;;;1.80;1.33;;;20.10;99.90;;;;;;5050329;28;20298;-68
2022/08/01 03:44:38;;;;;;;2.00;1.70;;;20.10;99.90;;;;;;5050279;28;20194;-68
2022/08/01 03:47:08;;;;;;;2.27;1.70;;;20.20;99.90;;;;;;5050525;28;20194;-67
2022/08/01 03:49:42;;;;;;;3.83;1.60;;;20.30;99.90;;;;;;5048136;28;20202;-68
2022/08/01 03:52:09;;;;;;;2.70;1.77;;;20.30;99.90;;;;;;5044878;28;20693;-68
2022/08/01 03:54:41;;;;;;;1.40;1.30;;;20.50;99.90;;;;;;5050655;28;20214;-67
2022/08/01 03:57:09;;;;;;;2.73;1.50;;;20.60;99.90;;;;;;5049871;28;20218;-67
2022/08/01 03:59:58;;;;;;;2.17;1.70;;;20.60;99.90;;;;;;5041325;28;20626;-67
2022/08/01 04:02:27;;;;;;;3.27;1.40;;;20.50;99.90;;;;;;5050917;28;20195;-69
2022/08/01 04:04:54;;;;;;;2.50;1.60;;;20.70;99.90;;;;;;5048865;28;20194;-68
2022/08/01 04:07:29;;;;;;;2.00;1.50;;;20.80;99.90;;;;;;5050148;28;20253;-68
2022/08/01 04:09:55;;;;;;;1.70;1.50;;;20.90;99.90;;;;;;5049400;28;20198;-68
2022/08/01 04:12:22;;;;;;;3.93;1.60;;;21.00;99.90;;;;;;5050725;28;20264;-68
2022/08/01 04:14:49;;;;;;;2.80;1.60;;;20.80;99.90;;;;;;5048900;28;20203;-68
2022/08/01 04:17:16;;;;;;;2.83;1.50;;;20.60;99.90;;;;;;5045822;28;20253;-68
2022/08/01 04:19:44;;;;;;;1.80;1.60;;;20.70;99.90;;;;;;5049285;28;20203;-68
2022/08/01 04:22:13;;;;;;;2.77;1.80;;;20.80;99.90;;;;;;5050092;28;20597;-68
2022/08/01 04:24:42;;;;;;;3.47;1.60;;;20.90;99.90;;;;;;5044199;28;20196;-68
2022/08/01 04:27:14;;;;;;;3.07;1.43;;;21.00;99.90;;;;;;5050590;28;20198;-68
2022/08/01 04:29:42;;;;;;;2.60;1.90;;;21.00;99.90;;;;;;5049398;28;20198;-69
2022/08/01 04:32:12;;;;;;;2.07;1.87;;;21.00;99.90;;;;;;5050233;28;20226;-67
2022/08/01 04:34:41;;;;;;;3.70;1.63;;;20.90;99.90;;;;;;5042498;28;20202;-67
2022/08/01 04:37:10;;;;;;;3.13;1.90;;;21.00;99.90;;;;;;5050445;28;20756;-66
2022/08/01 04:39:41;;;;;;;2.47;1.93;;;21.10;99.90;;;;;;5050200;28;20205;-67
2022/08/01 04:42:17;;;;;;;2.53;1.50;;;21.10;99.90;;;;;;5048730;28;20293;-68
2022/08/01 04:44:51;;;;;;;2.47;1.83;;;21.20;99.90;;;;;;5049936;28;20666;-68
2022/08/01 04:47:19;;;;;;;1.80;1.50;;;21.30;99.90;;;;;;5050024;28;20199;-68
2022/08/01 04:49:46;;;;;;;1.70;1.60;;;21.30;99.90;;;;;;5049507;28;20619;-68
2022/08/01 04:52:17;;;;;;;3.15;2.00;;;21.40;99.90;;;;;;5052600;28;20214;-68
2022/08/01 04:54:50;;;;;;;2.60;1.73;;;21.50;99.90;;;;;;5054202;28;20255;-68
2022/08/01 04:57:16;;;;;;;1.50;1.40;;;21.60;99.90;;;;;;5053934;28;20710;-69
2022/08/01 04:59:44;;;;;;;2.92;1.65;;;21.70;99.90;;;;;;5053019;28;20253;-69
2022/08/01 05:02:12;;;;;;;5.43;1.90;;;21.80;99.90;;;;;;5054634;28;20215;-67
2022/08/01 05:04:41;;;;;;;5.40;1.80;;;22.00;99.90;;;;;;5043858;28;20203;-67
2022/08/01 05:07:09;;;;;;;3.05;1.60;;;22.10;99.90;;;;;;5049756;28;20203;-68
2022/08/01 05:09:36;;;;;;;2.58;1.35;;;22.10;99.90;;;;;;5054422;28;20203;-68
2022/08/01 05:12:05;;;;;;;1.60;1.50;;;22.10;99.90;;;;;;5054547;28;20260;-69
2022/08/01 05:14:33;;;;;;;1.95;1.48;;;22.20;99.90;;;;;;5049045;28;20301;-68
2022/08/01 05:17:02;;;;;;;1.48;1.30;;;22.30;99.90;;;;;;5055792;28;20219;-67
2022/08/01 05:19:33;;;;;;;1.85;1.60;;;22.40;99.90;;;;;;5053527;28;20191;-69
2022/08/01 05:22:01;;;;;;;1.50;1.40;;;22.40;99.90;;;;;;5053131;28;20211;-68
2022/08/01 05:24:28;;;;;;;4.90;1.65;;;22.40;99.90;;;;;;5050674;28;20197;-69
2022/08/01 05:26:57;;;;;;;1.48;1.38;;;22.30;99.90;;;;;;5052713;28;20571;-69
2022/08/01 05:29:25;;;;;;;3.13;1.60;;;22.30;99.90;;;;;;5052908;28;20366;-69
2022/08/01 05:31:52;;;;;;;2.05;1.73;;;22.40;99.90;;;;;;5052261;28;20239;-69
2022/08/01 05:34:19;;;;;;;2.90;1.30;;;22.30;99.90;;;;;;5053028;28;20232;-69
2022/08/01 05:36:47;;;;;;;2.80;1.60;;;22.20;99.90;;;;;;5052862;28;20595;-69
2022/08/01 05:39:14;;;;;;;3.15;1.92;;;22.10;99.90;;;;;;5053259;28;20191;-69
2022/08/01 05:41:41;;;;;;;4.45;2.33;;;22.20;99.90;;;;;;5047516;28;20211;-68
2022/08/01 05:44:09;;;;;;;6.95;2.47;;;22.40;99.90;;;;;;5053094;28;20198;-68
2022/08/01 05:46:36;;;;;;;4.47;2.10;;;22.50;99.90;;;;;;5053083;28;20262;-69
2022/08/01 05:49:04;;;;;;;3.80;2.10;;;22.50;99.90;;;;;;5049306;28;20217;-68
2022/08/01 05:51:31;;;;;;;2.38;1.88;;;22.70;99.90;;;;;;5049257;28;20218;-68
2022/08/01 05:53:58;;;;;;;3.25;2.00;;;22.80;99.90;;;;;;5052691;28;20690;-68
2022/08/01 05:56:25;;;;;;;3.08;1.92;;;22.80;99.90;;;;;;5051078;28;20207;-68
2022/08/01 05:58:57;;;;;;;5.15;1.80;;;22.70;99.90;;;;;;5052694;28;20194;-69
2022/08/01 06:01:24;;;;;;;3.03;1.73;;;22.70;99.90;;;;;;5052147;28;20272;-68
2022/08/01 06:03:52;;;;;;;2.50;1.73;;;22.80;99.90;;;;;;5051540;28;20191;-68
2022/08/01 06:06:18;;;;;;;2.30;1.63;;;22.90;99.90;;;;;;5046408;28;20200;-69
2022/08/01 06:08:51;;;;;;;2.20;1.50;;;23.00;99.90;;;;;;5051467;28;20249;-69
2022/08/01 06:11:18;;;;;;;3.78;1.40;;;23.30;99.90;;;;;;5052347;28;20214;-68
2022/08/01 06:13:45;;;;;;;1.65;1.35;;;23.40;99.90;;;;;;5052496;28;20206;-68
2022/08/01 06:16:15;;;;;;;4.45;1.52;;;23.60;99.90;;;;;;5050032;28;20726;-69
2022/08/01 06:18:42;;;;;;;1.83;1.58;;;23.90;99.90;;;;;;5051583;28;20195;-68
2022/08/01 06:21:09;;;;;;;1.45;1.35;;;24.00;99.90;;;;;;5051751;28;20218;-69
2022/08/01 06:23:35;;;;;;;2.65;1.55;;;24.10;99.90;;;;;;5051814;28;20190;-68
2022/08/01 06:26:02;;;;;;;1.83;1.30;;;24.20;99.90;;;;;;5048313;28;20675;-68
2022/08/01 06:28:29;;;;;;;3.05;1.60;;;24.30;99.90;;;;;;5052198;28;20203;-69
2022/08/01 06:30:58;;;;;;;1.50;1.40;;;24.30;99.90;;;;;;5051506;28;20235;-68
2022/08/01 06:33:25;;;;;;;1.50;1.40;;;24.60;99.90;;;;;;5045586;28;20211;-68
2022/08/01 06:35:52;;;;;;;2.72;1.42;;;25.10;99.90;;;;;;5051133;28;20202;-68
2022/08/01 06:38:19;;;;;;;3.30;1.45;;;25.20;99.90;;;;;;5051834;28;20612;-68
2022/08/01 06:40:45;;;;;;;1.63;1.33;;;25.40;99.90;;;;;;5050575;28;20223;-68
2022/08/01 06:43:12;;;;;;;2.45;1.75;;;25.70;99.90;;;;;;5044777;28;20191;-68
2022/08/01 06:45:40;;;;;;;4.78;1.70;;;25.70;99.90;;;;;;5051546;28;20286;-68
2022/08/01 06:48:06;;;;;;;1.73;1.50;;;25.50;99.90;;;;;;5050389;28;20245;-68
2022/08/01 06:50:35;;;;;;;2.53;1.70;;;25.50;99.90;;;;;;5051125;28;20223;-68
2022/08/01 06:53:02;;;;;;;1.85;1.60;;;25.50;99.90;;;;;;5050379;28;20221;-69
2022/08/01 06:55:29;;;;;;;1.40;1.30;;;25.60;99.90;;;;;;5051150;28;20214;-69
2022/08/01 06:57:56;;;;;;;2.25;1.40;;;25.70;99.90;;;;;;5050852;28;20611;-68
2022/08/01 07:00:24;;;;;;;4.75;1.98;;;25.70;99.90;;;;;;5047150;28;20214;-68
2022/08/01 07:02:56;;;;;;;3.90;1.30;;;25.70;99.90;;;;;;5033075;28;20202;-69
2022/08/01 07:05:23;;;;;;;3.90;1.80;;;25.50;99.90;;;;;;5033873;28;20266;-69
2022/08/01 07:07:50;;;;;;;2.30;1.65;;;25.30;99.90;;;;;;5045180;28;20729;-69
2022/08/01 07:10:17;;;;;;;2.42;1.60;;;25.30;99.90;;;;;;5033575;28;20219;-69
2022/08/01 07:12:44;;;;;;;2.40;1.30;;;25.40;99.90;;;;;;5052305;28;20662;-69
2022/08/01 07:15:11;;;;;;;1.83;1.52;;;25.50;99.90;;;;;;5048543;28;20300;-69
2022/08/01 07:17:42;;;;;;;1.77;1.42;;;25.90;99.90;;;;;;5050856;28;20280;-68
2022/08/01 07:20:11;;;;;;;2.78;1.85;;;25.90;99.90;;;;;;5050522;28;20187;-68
2022/08/01 07:22:42;;;;;;;2.10;1.63;;;26.40;99.90;;;;;;5050971;28;20191;-69
2022/08/01 07:25:09;;;;;;;1.83;1.67;;;26.70;99.90;;;;;;5048397;28;20194;-69
2022/08/01 07:27:37;;;;;;;2.28;1.88;;;26.70;99.90;;;;;;5050811;28;20198;-68
2022/08/01 07:30:05;;;;;;;3.83;1.70;;;26.90;99.90;;;;;;5042503;28;20195;-68
2022/08/01 07:32:31;;;;;;;1.75;1.60;;;27.30;99.90;;;;;;5045438;28;20284;-68
2022/08/01 07:34:58;;;;;;;3.05;1.65;;;27.50;99.90;;;;;;5050240;28;20902;-69
2022/08/01 07:37:26;;;;;;;2.78;1.60;;;27.90;99.90;;;;;;5050391;28;20608;-68
2022/08/01 07:40:13;;;;;;;1.88;1.50;;;27.80;99.90;;;;;;5043947;28;20222;-68
2022/08/01 07:42:43;;;;;;;3.20;1.77;;;27.60;99.90;;;;;;5050108;28;20408;-69
2022/08/01 07:45:11;;;;;;;3.85;1.90;;;27.50;99.90;;;;;;5033388;28;20594;-68
2022/08/01 07:47:38;;;;;;;2.13;1.63;;;27.50;99.90;;;;;;5048844;28;20202;-69
2022/08/01 07:50:06;;;;;;;2.13;1.85;;;27.70;99.90;;;;;;5042328;28;20670;-69
2022/08/01 07:52:32;;;;;;;2.67;2.10;;;27.80;99.90;;;;;;5049765;28;20203;-69
2022/08/01 07:54:59;;;;;;;1.88;1.60;;;28.00;99.90;;;;;;5049919;28;20203;-68
2022/08/01 07:57:26;;;;;;;3.10;1.80;;;28.30;99.90;;;;;;5049328;28;20222;-68
2022/08/01 07:59:52;;;;;;;3.13;1.80;;;28.40;99.90;;;;;;5048518;28;20620;-69
2022/08/01 08:02:19;;;;;;;2.22;1.90;;;28.30;99.90;;;;;;5033701;28;20195;-69
2022/08/01 08:04:46;;;;;;;2.33;1.83;;;28.50;99.90;;;;;;5050038;28;20203;-68
2022/08/01 08:07:15;;;;;;;3.30;1.75;;;28.70;99.90;;;;;;5044906;28;20199;-69
2022/08/01 08:09:41;;;;;;;5.03;1.90;;;28.80;99.90;;;;;;5049254;28;20212;-68
2022/08/01 08:12:08;;;;;;;3.03;2.10;;;29.00;99.90;;;;;;5049811;28;20218;-68
2022/08/01 08:14:36;;;;;;;2.63;2.03;;;29.00;99.90;;;;;;5044298;28;20211;-69
2022/08/01 08:17:03;;;;;;;8.50;2.20;;;29.20;99.90;;;;;;5050163;28;20241;-69
2022/08/01 08:19:33;;;;;;;2.92;2.20;;;29.20;99.90;;;;;;5050050;28;20619;-69
2022/08/01 08:22:05;;;;;;;2.60;2.28;;;29.40;99.90;;;;;;5049681;28;20223;-69
2022/08/01 08:24:32;;;;;;;3.83;2.08;;;29.70;99.90;;;;;;5048132;28;20195;-69
2022/08/01 08:27:01;;;;;;;3.53;2.30;;;29.90;99.90;;;;;;5049513;28;20203;-69
2022/08/01 08:29:31;;;;;;;2.90;2.60;;;29.40;99.90;;;;;;5049489;28;20195;-70
2022/08/01 08:31:59;;;;;;;3.33;2.60;;;28.80;99.90;;;;;;5046334;28;20268;-69
2022/08/01 08:34:27;;;;;;;4.10;2.65;;;27.80;99.90;;;;;;5049657;28;20813;-69
2022/08/01 08:36:55;;;;;;;3.50;2.72;;;27.60;99.90;;;;;;5049471;28;20222;-69
2022/08/01 08:39:24;;;;;;;4.45;3.00;;;27.40;99.90;;;;;;5049816;28;20694;-69
2022/08/01 08:41:51;;;;;;;3.95;2.78;;;27.50;99.90;;;;;;5045018;28;20265;-69
2022/08/01 08:44:19;;;;;;;3.35;3.05;;;27.20;99.90;;;;;;5049960;28;20195;-69
2022/08/01 08:46:48;;;;;;;3.00;2.70;;;27.30;99.90;;;;;;5034007;28;20670;-69
2022/08/01 08:49:21;;;;;;;3.85;2.47;;;27.30;99.90;;;;;;5031248;28;20675;-69
2022/08/01 08:51:50;;;;;;;4.88;3.25;;;27.40;99.90;;;;;;5048402;28;20233;-69
2022/08/01 08:54:20;;;;;;;3.58;2.88;;;27.30;99.90;;;;;;5049583;28;20635;-69
2022/08/01 08:56:47;;;;;;;4.00;3.08;;;27.10;99.90;;;;;;5049714;28;20222;-69
2022/08/01 08:59:14;;;;;;;4.25;3.08;;;26.90;99.90;;;;;;5048631;28;20328;-69
2022/08/01 09:01:41;;;;;;;3.70;3.03;;;26.70;99.90;;;;;;5049242;28;20214;-69
2022/08/01 09:04:09;;;;;;;3.22;2.92;;;26.50;99.90;;;;;;5042193;28;20191;-69
2022/08/01 09:06:36;;;;;;;4.28;2.67;;;26.30;99.90;;;;;;5049983;28;20808;-68
2022/08/01 09:09:04;;;;;;;3.13;2.53;;;26.20;99.90;;;;;;5048169;28;20187;-69
2022/08/01 09:11:31;;;;;;;4.10;2.90;;;26.50;99.90;;;;;;5049229;28;20686;-69
2022/08/01 09:14:01;;;;;;;3.22;2.60;;;27.00;99.90;;;;;;5049118;28;20679;-69
2022/08/01 09:16:28;;;;;;;2.70;2.50;;;27.40;99.90;;;;;;5049672;28;20206;-69
2022/08/01 09:19:16;;;;;;;3.80;2.50;;;28.00;99.90;;;;;;5048396;28;20195;-69
2022/08/01 09:22:06;;;;;;;2.80;2.50;;;28.50;99.90;;;;;;5049341;28;20615;-69
2022/08/01 09:24:35;;;;;;;6.05;2.53;;;28.70;99.90;;;;;;5049629;28;20195;-68
2022/08/01 09:27:19;;;;;;;2.92;2.47;;;28.90;99.90;;;;;;5045996;28;20202;-68
2022/08/01 09:29:49;;;;;;;3.00;2.45;;;29.30;99.90;;;;;;5049078;28;20195;-69
2022/08/01 09:32:30;;;;;;;3.33;2.67;;;29.30;99.90;;;;;;5048807;28;20209;-69
2022/08/01 09:35:24;;;;;;;4.18;2.58;;;29.30;99.90;;;;;;5046753;28;20198;-69
2022/08/01 09:38:16;;;;;;;3.08;2.60;;;29.00;99.90;;;;;;5049690;28;20227;-69
2022/08/01 09:40:48;;;;;;;3.85;2.60;;;28.90;99.90;;;;;;5051943;28;20206;-70
2022/08/01 09:43:17;;;;;;;3.42;2.60;;;28.90;99.90;;;;;;5043535;28;20585;-69
2022/08/01 09:45:44;;;;;;;3.03;2.72;;;28.90;99.90;;;;;;5050317;28;20642;-69
2022/08/01 09:48:16;;;;;;;4.38;2.58;;;28.60;99.90;;;;;;5046681;28;20203;-69
2022/08/01 09:50:45;;;;;;;3.45;2.40;;;28.70;99.90;;;;;;5052251;28;20223;-69
2022/08/01 09:53:15;;;;;;;2.60;2.40;;;29.20;99.90;;;;;;5041424;28;20199;-69
2022/08/01 09:56:11;;;;;;;3.00;2.25;;;29.80;99.90;;;;;;5052383;28;20202;-69
2022/08/01 09:58:53;;;;;;;3.80;2.63;;;30.40;99.90;;;;;;5051810;28;20215;-69
2022/08/01 10:01:27;;;;;;;2.33;2.13;;;30.30;99.90;;;;;;5045995;28;20214;-69
2022/08/01 10:04:19;;;;;;;2.35;2.15;;;30.40;99.90;;;;;;5052231;28;20201;-68
2022/08/01 10:06:53;;;;;;;3.22;2.10;;;29.70;99.90;;;;;;5052560;28;20199;-69
2022/08/01 10:09:33;;;;;;;3.17;2.10;;;29.90;99.90;;;;;;5048324;28;20221;-69
2022/08/01 10:12:06;;;;;;;2.95;2.13;;;30.20;99.90;;;;;;5052373;28;20211;-69
2022/08/01 10:14:35;;;;;;;2.83;2.40;;;30.10;99.90;;;;;;5052151;28;20206;-68
2022/08/01 10:17:03;;;;;;;2.45;2.10;;;30.40;99.90;;;;;;5049809;28;20226;-69
2022/08/01 10:19:32;;;;;;;2.53;2.20;;;30.50;99.90;;;;;;5048853;28;20567;-69
2022/08/01 10:22:00;;;;;;;2.22;2.03;;;30.50;99.90;;;;;;5052124;28;20215;-69
2022/08/01 10:24:29;;;;;;;2.72;2.30;;;30.50;99.90;;;;;;5052147;28;20755;-69
2022/08/01 10:27:02;;;;;;;2.42;2.08;;;30.70;99.90;;;;;;5036591;28;20372;-69
2022/08/01 10:30:07;;;;;;;2.95;2.30;;;30.70;99.90;;;;;;5051923;28;20252;-67
2022/08/01 10:32:52;;;;;;;2.20;2.00;;;30.70;99.90;;;;;;5050280;28;20286;-69
2022/08/01 10:35:21;;;;;;;2.53;2.33;;;31.00;99.90;;;;;;5051272;28;20191;-69
2022/08/01 10:38:08;;;;;;;3.10;2.38;;;30.80;99.90;;;;;;5057847;28;20218;-70
2022/08/01 10:40:41;;;;;;;2.25;1.95;;;31.20;99.90;;;;;;5050898;28;20578;-69
2022/08/01 10:43:09;;;;;;;2.75;2.20;;;31.50;99.90;;;;;;5051436;28;20195;-70
2022/08/01 10:45:36;;;;;;;2.25;2.05;;;32.00;99.90;;;;;;5050316;28;20674;-68
2022/08/01 10:48:10;;;;;;;2.08;1.88;;;32.40;99.90;;;;;;5036161;28;20248;-69
2022/08/01 10:50:45;;;;;;;2.35;1.90;;;32.50;99.90;;;;;;5037819;28;20594;-69
2022/08/01 10:53:20;;;;;;;4.13;2.17;;;31.20;99.90;;;;;;5048949;28;20195;-69
2022/08/01 10:56:00;;;;;;;3.60;2.03;;;31.10;99.90;;;;;;5050592;28;20704;-68
2022/08/01 10:58:37;;;;;;;2.13;1.95;;;31.20;99.90;;;;;;5050959;28;20225;-68
2022/08/01 11:01:26;;;;;;;2.30;2.10;;;31.50;99.90;;;;;;5044876;28;20215;-69
2022/08/01 11:04:01;;;;;;;2.90;2.30;;;31.90;99.90;;;;;;5051409;28;20194;-70
2022/08/01 11:06:32;;;;;;;2.92;2.08;;;31.90;99.90;;;;;;5051051;28;20222;-69
2022/08/01 11:09:03;;;;;;;2.63;1.88;;;31.20;99.90;;;;;;5045680;28;20203;-69
2022/08/01 11:11:32;;;;;;;2.10;1.88;;;31.60;99.90;;;;;;5050852;28;20218;-69
2022/08/01 11:14:07;;;;;;;2.33;1.98;;;31.90;99.90;;;;;;5050320;28;20205;-70
2022/08/01 11:16:37;;;;;;;2.30;1.80;;;31.80;99.90;;;;;;5047666;28;20199;-70
2022/08/01 11:19:08;;;;;;;2.50;2.20;;;31.00;99.90;;;;;;5049398;28;20242;-67
2022/08/01 11:21:53;;;;;;;3.30;2.30;;;30.40;99.90;;;;;;5050510;28;20219;-69
2022/08/01 11:24:47;;;;;;;2.33;2.03;;;30.70;99.90;;;;;;5044644;28;20720;-70
2022/08/01 11:27:30;;;;;;;2.58;2.38;;;31.40;99.90;;;;;;5037295;28;20198;-69
2022/08/01 11:30:08;;;;;;;2.35;2.10;;;30.60;99.90;;;;;;5050178;28;20191;-69
2022/08/01 11:32:53;;;;;;;2.30;2.05;;;30.90;99.90;;;;;;5050792;28;20213;-69
2022/08/01 11:35:57;;;;;;;2.20;2.00;;;31.20;99.90;;;;;;5047215;28;20201;-68
2022/08/01 11:38:30;;;;;;;2.67;2.20;;;30.90;99.90;;;;;;5045507;28;20535;-69
2022/08/01 11:41:23;;;;;;;2.42;2.10;;;30.80;99.90;;;;;;5050295;28;20242;-68
2022/08/01 11:44:13;;;;;;;2.13;1.88;;;30.40;99.90;;;;;;5049144;28;20281;-69
2022/08/01 11:46:48;;;;;;;2.20;2.00;;;30.50;99.90;;;;;;5050380;28;20482;-69
2022/08/01 11:49:26;;;;;;;2.13;1.92;;;30.80;99.90;;;;;;5050701;28;20828;-68
2022/08/01 11:52:05;;;;;;;3.08;1.80;;;31.00;99.90;;;;;;5049941;28;20215;-69
2022/08/01 11:54:42;;;;;;;3.38;2.00;;;30.90;99.90;;;;;;5046512;28;20360;-69
2022/08/01 11:57:13;;;;;;;3.55;1.90;;;30.90;99.90;;;;;;5050529;28;20198;-68
2022/08/01 11:59:48;;;;;;;1.90;1.70;;;30.90;99.90;;;;;;5050149;28;20199;-68
2022/08/01 12:02:32;;;;;;;3.25;2.20;;;31.20;99.90;;;;;;5043635;28;20685;-69
2022/08/01 12:05:17;;;;;;;2.03;1.83;;;31.90;99.90;;;;;;5049597;28;20222;-68
2022/08/01 12:07:48;;;;;;;2.10;1.90;;;32.10;99.90;;;;;;5050534;28;20206;-69
2022/08/01 12:10:17;;;;;;;2.50;1.90;;;32.50;99.90;;;;;;5046796;28;20214;-69
2022/08/01 12:12:45;;;;;;;3.70;2.00;;;32.90;99.90;;;;;;5049958;28;20570;-69
2022/08/01 12:15:13;;;;;;;3.00;1.80;;;33.20;99.90;;;;;;5050001;28;20203;-68
2022/08/01 12:17:45;;;;;;;3.67;1.77;;;33.40;99.90;;;;;;5049995;28;20218;-70
2022/08/01 12:20:27;;;;;;;2.20;2.00;;;33.10;99.90;;;;;;5044828;28;20219;-70
2022/08/01 12:22:57;;;;;;;2.55;2.00;;;32.90;99.90;;;;;;5049438;28;20199;-69
2022/08/01 12:25:24;;;;;;;2.17;1.95;;;32.60;99.90;;;;;;5049762;28;20197;-69
2022/08/01 12:27:51;;;;;;;2.30;1.90;;;32.50;99.90;;;;;;5047146;28;20202;-69
2022/08/01 12:30:23;;;;;;;4.28;2.17;;;32.60;99.90;;;;;;5044481;28;20314;-69
2022/08/01 12:32:52;;;;;;;1.95;1.85;;;32.40;99.90;;;;;;5049711;28;20207;-68
2022/08/01 12:35:24;;;;;;;1.90;1.80;;;32.30;99.90;;;;;;5045976;28;20704;-69
2022/08/01 12:37:54;;;;;;;2.53;2.03;;;32.20;99.90;;;;;;5049576;28;20225;-69
2022/08/01 12:40:23;;;;;;;3.47;2.03;;;31.90;99.90;;;;;;5048274;28;20355;-69
2022/08/01 12:42:52;;;;;;;3.45;2.22;;;31.90;99.90;;;;;;5049544;28;20191;-69
2022/08/01 12:45:23;;;;;;;2.20;2.00;;;31.90;99.90;;;;;;5049073;28;20190;-68
2022/08/01 12:47:52;;;;;;;2.88;2.00;;;32.00;99.90;;;;;;5049820;28;20207;-70
2022/08/01 12:50:25;;;;;;;2.50;1.70;;;32.10;99.90;;;;;;5037187;28;20222;-69
2022/08/01 12:52:52;;;;;;;2.75;2.00;;;32.30;99.90;;;;;;5049431;28;20674;-69
2022/08/01 12:55:20;;;;;;;2.30;2.05;;;32.50;99.90;;;;;;5046319;28;20241;-68
2022/08/01 12:57:52;;;;;;;2.45;2.03;;;32.50;99.90;;;;;;5049709;28;20226;-69
2022/08/01 13:00:26;;;;;;;2.20;2.00;;;32.50;99.90;;;;;;5049166;28;20215;-69
2022/08/01 13:03:03;;;;;;;2.10;1.90;;;32.30;99.90;;;;;;5047075;28;20188;-69
2022/08/01 13:05:42;;;;;;;2.65;2.08;;;32.40;99.90;;;;;;5045179;28;20260;-68
2022/08/01 13:08:20;;;;;;;3.45;1.90;;;32.30;99.90;;;;;;5047828;28;20191;-69